Jewell, Kansas
Current Conditions -  °F | °C
As of 10:55 AM on Thursday 27 Nov 2014 (Local Time) from KCNK Reporting Station
Clear Clear  
Wind Chill: 20°   Ceiling: Unl
Heat Index: 27°   Visibility: 10mi
Dew Point: 15°   Wind: 6mph
Humidity: 61%   Direction: NA
Pressure: 30.47"   Gusts: NA
Location:  39.67°N, 98.15°W
Report Text: KCNK 271655Z AUTO VRB05KT 10SM CLR M03/M09 A3047 RMK AO2 SLP337 T10281094
Loading
Personal Weather Stations






























Interactive Weather Map New forecast layout! Learn more

10-Day Weather Forecast

Advertisements
Track Severe Weather on mobile